createdAt,value
2023-03-18T00:01:04.751Z,95768.97
2023-03-18T00:03:36.287Z,95757.00
2023-03-18T00:06:18.140Z,95765.22
2023-03-18T00:08:51.264Z,95766.53
2023-03-18T00:11:30.553Z,95764.63
2023-03-18T00:14:11.534Z,95701.25
2023-03-18T00:16:49.465Z,95752.09
2023-03-18T00:19:24.037Z,95754.41
2023-03-18T00:21:57.719Z,95753.03
2023-03-18T00:24:32.124Z,95726.47
2023-03-18T00:27:06.599Z,95732.09
2023-03-18T00:29:43.355Z,95706.84
2023-03-18T00:32:16.835Z,95744.31
2023-03-18T00:34:49.096Z,95738.41
2023-03-18T00:37:32.665Z,95735.16
2023-03-18T00:40:06.059Z,95731.13
2023-03-18T00:42:48.606Z,95726.91
2023-03-18T00:45:30.842Z,95714.50
2023-03-18T00:48:00.276Z,95718.50
2023-03-18T00:50:31.080Z,95642.97
2023-03-18T00:53:00.964Z,95712.69
2023-03-18T00:55:31.174Z,95700.50
2023-03-18T00:58:09.841Z,95702.91
2023-03-18T01:00:43.451Z,95707.91
2023-03-18T01:03:22.814Z,95703.47
2023-03-18T01:06:11.266Z,95698.38
2023-03-18T01:08:42.465Z,95712.75
2023-03-18T01:11:23.313Z,95706.63
2023-03-18T01:14:20.258Z,95693.84
2023-03-18T01:17:02.311Z,95682.88
2023-03-18T01:19:40.357Z,95682.59
2023-03-18T01:22:12.227Z,95695.63
2023-03-18T01:25:06.145Z,95684.41
2023-03-18T01:27:34.578Z,95686.03
2023-03-18T01:30:04.013Z,95698.00
2023-03-18T01:32:32.233Z,95686.56
2023-03-18T01:35:00.894Z,95689.72
2023-03-18T01:37:29.054Z,95688.91
2023-03-18T01:40:01.094Z,95670.47
2023-03-18T01:42:34.746Z,95683.19
2023-03-18T01:45:25.054Z,95694.06
2023-03-18T01:47:56.187Z,95690.16
2023-03-18T01:50:27.397Z,95336.44
2023-03-18T01:53:08.032Z,95693.22
2023-03-18T01:55:53.425Z,95682.56
2023-03-18T01:58:54.920Z,95664.22
2023-03-18T02:01:37.866Z,95684.16
2023-03-18T02:06:47.987Z,95639.28
2023-03-18T02:15:23.761Z,95675.53
2023-03-18T02:17:58.957Z,95680.81
2023-03-18T02:20:43.471Z,95661.13
2023-03-18T02:23:20.596Z,95666.41
2023-03-18T02:25:56.265Z,95678.66
2023-03-18T02:28:30.213Z,95674.41
2023-03-18T02:31:02.151Z,95670.69
2023-03-18T02:33:38.835Z,95629.53
2023-03-18T02:36:10.951Z,95685.88
2023-03-18T02:38:42.940Z,95683.44
2023-03-18T02:41:15.816Z,95682.63
2023-03-18T02:43:45.571Z,95681.56
2023-03-18T02:46:22.613Z,95678.34
2023-03-18T02:48:51.413Z,95669.88
2023-03-18T02:51:20.983Z,95678.31
2023-03-18T02:53:50.786Z,95681.94
2023-03-18T02:56:18.732Z,95681.34
2023-03-18T02:58:50.608Z,95679.00
2023-03-18T03:01:19.682Z,95677.16
2023-03-18T03:03:47.653Z,95675.88
2023-03-18T03:06:15.829Z,95673.94
2023-03-18T03:08:46.706Z,95620.63
2023-03-18T03:11:15.347Z,95683.69
2023-03-18T03:13:45.390Z,95676.84
2023-03-18T03:16:15.667Z,95665.97
2023-03-18T03:18:44.133Z,95670.69
2023-03-18T03:21:14.142Z,95685.34
2023-03-18T03:23:42.729Z,95678.47
2023-03-18T03:26:10.677Z,95687.97
2023-03-18T03:28:38.654Z,95675.44
2023-03-18T03:31:06.880Z,95689.75
2023-03-18T03:33:36.723Z,95690.84
2023-03-18T03:36:09.585Z,95694.81
2023-03-18T03:38:37.927Z,95711.06
2023-03-18T03:41:08.776Z,95695.16
2023-03-18T03:43:36.953Z,95695.63
2023-03-18T03:46:07.389Z,95699.31
2023-03-18T03:48:37.606Z,95572.50
2023-03-18T03:51:11.156Z,95682.44
2023-03-18T03:53:39.502Z,95692.31
2023-03-18T03:56:25.716Z,95657.09
2023-03-18T03:58:55.527Z,95700.38
2023-03-18T04:01:23.445Z,95700.56
2023-03-18T04:03:52.708Z,95694.81
2023-03-18T04:06:20.555Z,95701.06
2023-03-18T04:08:48.401Z,95701.22
2023-03-18T04:11:16.458Z,95696.56
2023-03-18T04:13:44.808Z,95707.03
2023-03-18T04:16:12.785Z,95704.25
2023-03-18T04:18:40.722Z,95699.06
2023-03-18T04:21:10.483Z,95717.38
2023-03-18T04:23:38.579Z,95715.22
2023-03-18T04:26:06.871Z,95694.97
2023-03-18T04:28:35.183Z,95716.88
2023-03-18T04:31:03.106Z,95718.75
2023-03-18T04:33:31.101Z,95669.28
2023-03-18T04:35:59.323Z,95712.53
2023-03-18T04:38:28.774Z,95732.66
2023-03-18T04:40:56.775Z,95732.09
2023-03-18T04:43:24.636Z,95688.03
2023-03-18T04:45:52.951Z,95736.53
2023-03-18T04:48:20.827Z,95737.16
2023-03-18T04:50:48.787Z,95731.53
2023-03-18T04:53:16.795Z,95738.56
2023-03-18T04:55:46.280Z,95744.84
2023-03-18T04:58:14.184Z,95746.59
2023-03-18T05:00:42.557Z,95745.59
2023-03-18T05:03:11.005Z,95746.84
2023-03-18T05:05:39.162Z,95738.44
2023-03-18T05:08:23.826Z,95738.25
2023-03-18T05:10:55.977Z,95742.84
2023-03-18T05:13:24.167Z,95740.69
2023-03-18T05:15:53.640Z,95723.34
2023-03-18T05:18:21.516Z,95713.63
2023-03-18T05:20:49.397Z,95709.81
2023-03-18T05:23:17.470Z,95731.94
2023-03-18T05:25:49.585Z,95651.97
2023-03-18T05:28:19.334Z,95708.78
2023-03-18T05:30:47.519Z,95697.13
2023-03-18T05:33:15.982Z,95718.56
2023-03-18T05:35:43.938Z,95708.06
2023-03-18T05:38:11.881Z,95723.75
2023-03-18T05:40:39.838Z,95717.16
2023-03-18T05:43:08.972Z,95729.47
2023-03-18T05:45:40.264Z,95722.50
2023-03-18T05:48:08.547Z,95700.31
2023-03-18T05:50:40.326Z,95738.44
2023-03-18T05:53:09.549Z,95737.22
2023-03-18T05:55:38.231Z,95684.13
2023-03-18T05:58:06.388Z,95750.41
2023-03-18T06:00:34.445Z,95758.59
2023-03-18T06:03:03.858Z,95744.25
2023-03-18T06:05:32.798Z,95754.63
2023-03-18T06:08:02.813Z,95752.41
2023-03-18T06:10:31.180Z,95758.06
2023-03-18T06:12:59.182Z,95759.06
2023-03-18T06:15:27.524Z,95762.13
2023-03-18T06:17:56.462Z,95761.50
2023-03-18T06:20:25.662Z,95729.91
2023-03-18T06:22:53.533Z,95746.91
2023-03-18T06:25:23.500Z,95744.47
2023-03-18T06:27:52.243Z,95728.81
2023-03-18T06:30:20.720Z,95730.91
2023-03-18T06:32:48.988Z,95679.88
2023-03-18T06:35:17.440Z,95729.47
2023-03-18T06:37:46.715Z,95734.34
2023-03-18T06:40:15.823Z,95595.63
2023-03-18T06:42:44.638Z,95728.34
2023-03-18T06:45:13.809Z,95686.75
2023-03-18T06:47:43.074Z,95728.03
2023-03-18T06:50:13.624Z,95722.13
2023-03-18T06:52:41.506Z,95726.00
2023-03-18T06:55:11.811Z,95738.41
2023-03-18T06:57:40.412Z,95735.44
2023-03-18T07:00:10.527Z,95730.97
2023-03-18T07:02:39.769Z,95714.13
2023-03-18T07:05:08.993Z,95733.44
2023-03-18T07:07:37.744Z,95731.66
2023-03-18T07:10:06.433Z,95728.91
2023-03-18T07:12:36.044Z,95728.41
2023-03-18T07:15:04.577Z,95729.31
2023-03-18T07:17:32.552Z,95729.81
2023-03-18T07:20:00.658Z,95730.13
2023-03-18T07:22:29.243Z,95652.56
2023-03-18T07:24:57.135Z,95723.88
2023-03-18T07:27:25.140Z,95721.28
2023-03-18T07:29:54.445Z,95733.47
2023-03-18T07:32:22.621Z,95728.06
2023-03-18T07:34:50.616Z,95732.66
2023-03-18T07:37:18.584Z,95730.63
2023-03-18T07:39:46.846Z,95727.31
2023-03-18T07:42:15.406Z,95674.03
2023-03-18T07:44:43.617Z,95718.94
2023-03-18T07:47:14.635Z,95715.69
2023-03-18T07:49:42.725Z,95730.50
2023-03-18T07:52:11.033Z,95736.28
2023-03-18T07:54:38.937Z,95727.72
2023-03-18T07:57:07.105Z,95735.13
2023-03-18T07:59:35.247Z,95724.44
2023-03-18T08:02:04.949Z,95718.81
2023-03-18T08:04:35.594Z,95707.22
2023-03-18T08:07:03.594Z,95715.31
2023-03-18T08:09:32.499Z,95700.38
2023-03-18T08:12:00.420Z,95681.25
2023-03-18T08:14:28.330Z,95717.31
2023-03-18T08:16:56.227Z,95727.19
2023-03-18T08:19:24.173Z,95725.66
2023-03-18T08:21:54.185Z,95733.09
2023-03-18T08:24:24.401Z,95736.75
2023-03-18T08:26:52.613Z,95715.53
2023-03-18T08:29:20.815Z,95677.75
2023-03-18T08:31:48.779Z,95691.41
2023-03-18T08:34:16.790Z,95707.56
2023-03-18T08:36:45.372Z,95678.59
2023-03-18T08:39:14.738Z,95722.50
2023-03-18T08:41:44.776Z,95711.59
2023-03-18T08:44:13.874Z,95715.31
2023-03-18T08:46:41.801Z,95696.09
2023-03-18T08:49:10.352Z,95714.78
2023-03-18T08:51:38.628Z,95717.03
2023-03-18T08:54:06.749Z,95719.31
2023-03-18T08:56:36.101Z,95722.78
2023-03-18T08:59:04.217Z,95718.03
2023-03-18T09:01:32.195Z,95721.59
2023-03-18T09:04:00.150Z,95572.75
2023-03-18T09:06:28.786Z,95715.50
2023-03-18T09:08:57.646Z,95727.69
2023-03-18T09:11:25.816Z,95721.72
2023-03-18T09:13:55.707Z,95734.19
2023-03-18T09:16:23.649Z,95718.66
2023-03-18T09:18:51.575Z,95726.53
2023-03-18T09:21:20.331Z,95718.94
2023-03-18T09:23:49.696Z,95683.81
2023-03-18T09:26:18.659Z,95699.63
2023-03-18T09:28:47.100Z,95719.84
2023-03-18T09:31:16.559Z,95713.09
2023-03-18T09:33:44.594Z,95716.69
2023-03-18T09:36:12.801Z,95714.78
2023-03-18T09:38:41.304Z,95706.66
2023-03-18T09:41:22.667Z,95723.97
2023-03-18T09:44:00.685Z,95697.56
2023-03-18T09:46:38.036Z,95704.59
2023-03-18T09:49:34.184Z,95687.97
2023-03-18T09:52:14.848Z,95694.22
2023-03-18T09:54:49.246Z,95712.28
2023-03-18T09:57:22.989Z,95712.03
2023-03-18T09:59:55.876Z,95717.19
2023-03-18T10:02:29.288Z,95639.56
2023-03-18T10:05:01.950Z,95712.03
2023-03-18T10:07:34.002Z,95694.00
2023-03-18T10:10:07.442Z,95678.50
2023-03-18T10:12:38.127Z,95674.91
2023-03-18T10:15:16.829Z,95703.72
2023-03-18T10:17:53.514Z,95708.38
2023-03-18T10:20:30.460Z,95700.28
2023-03-18T10:23:07.025Z,95685.72
2023-03-18T10:25:39.904Z,95712.31
2023-03-18T10:28:33.827Z,95702.84
2023-03-18T10:31:12.061Z,95681.56
2023-03-18T10:33:49.262Z,95695.34
2023-03-18T10:36:23.629Z,95694.91
2023-03-18T10:38:55.666Z,95643.41
2023-03-18T10:41:28.740Z,95692.19
2023-03-18T10:43:58.141Z,95697.34
2023-03-18T10:46:28.378Z,95680.97
2023-03-18T10:49:06.302Z,95670.00
2023-03-18T10:51:40.833Z,95685.28
2023-03-18T10:54:16.905Z,95684.47
2023-03-18T10:56:44.942Z,95690.53
2023-03-18T10:59:16.415Z,95541.09
2023-03-18T11:01:47.837Z,95639.25
2023-03-18T11:04:19.520Z,95688.63
2023-03-18T11:06:50.063Z,95682.13
2023-03-18T11:09:20.892Z,95689.78
2023-03-18T11:11:53.900Z,95692.47
2023-03-18T11:14:24.602Z,95687.38
2023-03-18T11:16:59.773Z,95693.44
2023-03-18T11:19:32.337Z,95688.50
2023-03-18T11:22:18.152Z,95672.91
2023-03-18T11:24:46.285Z,95673.91
2023-03-18T11:27:27.861Z,95670.69
2023-03-18T11:29:59.228Z,95668.16
2023-03-18T11:32:29.569Z,95661.38
2023-03-18T11:35:01.708Z,95646.91
2023-03-18T11:37:32.871Z,95664.56
2023-03-18T11:40:28.252Z,95663.69
2023-03-18T11:42:58.678Z,95672.59
2023-03-18T11:45:43.498Z,95674.94
2023-03-18T11:48:17.973Z,95671.63
2023-03-18T11:51:03.466Z,95675.41
2023-03-18T11:53:46.654Z,95659.22
2023-03-18T11:56:20.116Z,95679.00
2023-03-18T11:59:27.796Z,95685.72
2023-03-18T12:02:08.084Z,95635.56
2023-03-18T12:04:54.729Z,95671.81
2023-03-18T12:07:47.333Z,95622.84
2023-03-18T12:10:25.972Z,95668.03
2023-03-18T12:13:09.559Z,95639.81
2023-03-18T12:15:48.395Z,95616.78
2023-03-18T12:18:34.507Z,95149.72
2023-03-18T12:21:12.308Z,95658.69
2023-03-18T12:23:54.770Z,95669.88
2023-03-18T12:26:31.141Z,95645.56
2023-03-18T12:29:18.672Z,95643.19
2023-03-18T12:32:04.388Z,95628.34
2023-03-18T12:34:50.371Z,95652.47
2023-03-18T12:37:32.164Z,95657.59
2023-03-18T12:40:25.599Z,95659.34
2023-03-18T12:43:18.187Z,95653.63
2023-03-18T12:45:50.638Z,95644.94
2023-03-18T12:48:40.691Z,95610.09
2023-03-18T12:51:13.746Z,95663.34
2023-03-18T12:53:46.428Z,95664.34
2023-03-18T12:56:19.862Z,95671.03
2023-03-18T12:58:52.607Z,95640.88
2023-03-18T13:01:24.844Z,95635.09
2023-03-18T13:03:58.574Z,95646.03
2023-03-18T13:06:31.900Z,95656.09
2023-03-18T13:09:06.673Z,95607.94
2023-03-18T13:12:09.292Z,95659.84
2023-03-18T13:14:56.432Z,95658.69
2023-03-18T13:17:29.809Z,95656.16
2023-03-18T13:20:01.461Z,95664.25
2023-03-18T13:23:07.733Z,95652.88
2023-03-18T13:25:42.679Z,95661.25
2023-03-18T13:28:34.608Z,95649.59
2023-03-18T13:31:13.750Z,95599.00
2023-03-18T13:34:08.324Z,95503.50
2023-03-18T13:37:27.810Z,95622.84
2023-03-18T13:40:12.947Z,95640.44
2023-03-18T13:42:42.882Z,95631.97
2023-03-18T13:45:24.373Z,95642.19
2023-03-18T13:47:59.241Z,95537.19
2023-03-18T13:50:32.519Z,95644.28
2023-03-18T13:53:02.766Z,95652.25
2023-03-18T13:55:34.426Z,95631.25
2023-03-18T13:58:22.718Z,95618.16
2023-03-18T14:01:29.236Z,95615.34
2023-03-18T14:04:03.005Z,95644.19
2023-03-18T14:06:48.002Z,95640.72
2023-03-18T14:09:32.391Z,95642.31
2023-03-18T14:12:17.857Z,95631.34
2023-03-18T14:14:57.937Z,95636.91
2023-03-18T14:17:46.674Z,95634.84
2023-03-18T14:20:23.836Z,95633.75
2023-03-18T14:22:53.929Z,95545.38
2023-03-18T14:25:35.572Z,95640.22
2023-03-18T14:28:19.046Z,95616.47
2023-03-18T14:31:00.690Z,95625.97
2023-03-18T14:33:51.704Z,95603.91
2023-03-18T14:36:31.129Z,95623.53
2023-03-18T14:39:03.700Z,95627.03
2023-03-18T14:41:37.133Z,95631.19
2023-03-18T14:44:14.725Z,95602.84
2023-03-18T14:46:46.715Z,95619.94
2023-03-18T14:49:35.571Z,95636.41
2023-03-18T14:52:07.452Z,95634.19
2023-03-18T14:54:45.974Z,95639.41
2023-03-18T14:57:14.226Z,95631.50
2023-03-18T14:59:42.990Z,95624.38
2023-03-18T15:02:22.907Z,95623.72
2023-03-18T15:04:57.060Z,95613.59
2023-03-18T15:07:35.539Z,95647.00
2023-03-18T15:10:08.744Z,95643.34
2023-03-18T15:12:37.324Z,95582.56
2023-03-18T15:15:06.232Z,95644.03
2023-03-18T15:17:34.159Z,95644.97
2023-03-18T15:20:05.429Z,95654.34
2023-03-18T15:22:35.657Z,95653.69
2023-03-18T15:25:08.506Z,95655.59
2023-03-18T15:27:40.168Z,95671.59
2023-03-18T15:30:24.484Z,95651.63
2023-03-18T15:33:09.224Z,95675.53
2023-03-18T15:35:39.598Z,95663.16
2023-03-18T15:38:19.808Z,95685.03
2023-03-18T15:40:51.838Z,95676.47
2023-03-18T15:43:28.733Z,95682.44
2023-03-18T15:45:58.871Z,95691.75
2023-03-18T15:48:32.104Z,95696.97
2023-03-18T15:51:03.201Z,95694.84
2023-03-18T15:53:40.693Z,95697.22
2023-03-18T15:56:18.349Z,95697.94
2023-03-18T15:58:58.138Z,95688.19
2023-03-18T16:01:27.673Z,95698.59
2023-03-18T16:03:56.090Z,95651.31
2023-03-18T16:06:27.429Z,95713.56
2023-03-18T16:08:58.500Z,95711.34
2023-03-18T16:11:27.449Z,95720.81
2023-03-18T16:13:57.842Z,95724.22
2023-03-18T16:16:29.373Z,95700.06
2023-03-18T16:19:01.685Z,95719.53
2023-03-18T16:21:31.950Z,95729.59
2023-03-18T16:23:59.863Z,95719.88
2023-03-18T16:26:28.119Z,95726.53
2023-03-18T16:28:56.499Z,95740.88
2023-03-18T16:31:24.513Z,95737.22
2023-03-18T16:33:53.842Z,95737.94
2023-03-18T16:36:30.514Z,95743.94
2023-03-18T16:38:59.949Z,95712.00
2023-03-18T16:41:28.049Z,95745.56
2023-03-18T16:43:56.156Z,95748.94
2023-03-18T16:46:27.919Z,95751.25
2023-03-18T16:48:56.220Z,95756.72
2023-03-18T16:51:26.104Z,95700.34
2023-03-18T16:53:54.992Z,95757.25
2023-03-18T16:56:28.739Z,95695.00
2023-03-18T16:58:59.012Z,95751.09
2023-03-18T17:01:36.717Z,95761.53
2023-03-18T17:04:14.803Z,95776.66
2023-03-18T17:06:43.692Z,95757.09
2023-03-18T17:09:12.043Z,95773.91
2023-03-18T17:11:44.157Z,95757.78
2023-03-18T17:14:30.847Z,95764.53
2023-03-18T17:17:20.174Z,95768.59
2023-03-18T17:19:48.673Z,95774.94
2023-03-18T17:22:22.385Z,95784.75
2023-03-18T17:24:51.354Z,95786.94
2023-03-18T17:27:23.764Z,95727.47
2023-03-18T17:29:51.889Z,95792.78
2023-03-18T17:32:23.006Z,95788.38
2023-03-18T17:34:52.409Z,95788.47
2023-03-18T17:37:21.592Z,95804.34
2023-03-18T17:39:49.989Z,95800.63
2023-03-18T17:42:29.510Z,95752.78
2023-03-18T17:45:00.885Z,95804.88
2023-03-18T17:47:28.899Z,95811.75
2023-03-18T17:49:58.592Z,95818.50
2023-03-18T17:52:27.216Z,95823.63
2023-03-18T17:54:56.444Z,95831.75
2023-03-18T17:57:25.849Z,95813.34
2023-03-18T17:59:54.223Z,95826.59
2023-03-18T18:02:23.478Z,95831.06
2023-03-18T18:04:53.761Z,95829.78
2023-03-18T18:07:23.806Z,95830.88
2023-03-18T18:09:52.544Z,95838.09
2023-03-18T18:12:25.312Z,95834.94
2023-03-18T18:14:54.659Z,95849.69
2023-03-18T18:17:22.699Z,95843.47
2023-03-18T18:19:50.686Z,95851.63
2023-03-18T18:22:22.278Z,95849.25
2023-03-18T18:24:52.301Z,95815.38
2023-03-18T18:27:20.552Z,95857.06
2023-03-18T18:29:49.528Z,95868.06
2023-03-18T18:32:19.126Z,95873.41
2023-03-18T18:34:47.234Z,95872.34
2023-03-18T18:37:15.580Z,95872.31
2023-03-18T18:39:46.755Z,95850.19
2023-03-18T18:42:15.032Z,95884.06
2023-03-18T18:44:44.351Z,95898.81
2023-03-18T18:47:19.365Z,95890.97
2023-03-18T18:49:47.632Z,95885.44
2023-03-18T18:52:15.577Z,95896.06
2023-03-18T18:54:43.538Z,95885.13
2023-03-18T18:57:25.295Z,95885.44
2023-03-18T18:59:53.489Z,95897.63
2023-03-18T19:02:31.194Z,95897.09
2023-03-18T19:05:00.020Z,95899.47
2023-03-18T19:07:29.322Z,95911.53
2023-03-18T19:09:57.343Z,95904.22
2023-03-18T19:12:25.256Z,95901.81
2023-03-18T19:14:53.614Z,95907.50
2023-03-18T19:17:23.725Z,95911.72
2023-03-18T19:19:53.783Z,95899.41
2023-03-18T19:22:22.686Z,95901.22
2023-03-18T19:24:50.755Z,95908.38
2023-03-18T19:27:23.911Z,95901.63
2023-03-18T19:29:53.784Z,95906.13
2023-03-18T19:32:23.942Z,95907.94
2023-03-18T19:34:54.669Z,95824.84
2023-03-18T19:37:27.479Z,95904.22
2023-03-18T19:39:55.966Z,95907.41
2023-03-18T19:42:24.210Z,95903.88
2023-03-18T19:44:52.484Z,95885.03
2023-03-18T19:47:23.211Z,95887.75
2023-03-18T19:49:55.553Z,95906.94
2023-03-18T19:52:27.210Z,95904.88
2023-03-18T19:54:56.127Z,95907.25
2023-03-18T19:57:27.096Z,95913.69
2023-03-18T19:59:56.700Z,95869.34
2023-03-18T20:02:29.637Z,95908.69
2023-03-18T20:04:59.763Z,95912.72
2023-03-18T20:07:37.189Z,95848.38
2023-03-18T20:10:11.896Z,95904.72
2023-03-18T20:12:45.341Z,95891.56
2023-03-18T20:15:17.868Z,95909.63
2023-03-18T20:17:48.984Z,95865.63
2023-03-18T20:20:19.920Z,95907.03
2023-03-18T20:22:53.129Z,95907.59
2023-03-18T20:25:23.136Z,95907.09
2023-03-18T20:27:53.653Z,95917.25
2023-03-18T20:30:30.198Z,95909.22
2023-03-18T20:33:00.031Z,95911.66
2023-03-18T20:35:30.278Z,95888.22
2023-03-18T20:38:03.042Z,95800.78
2023-03-18T20:40:31.761Z,95913.53
2023-03-18T20:43:00.380Z,95905.06
2023-03-18T20:45:28.844Z,95911.78
2023-03-18T20:47:57.036Z,95909.38
2023-03-18T20:50:31.606Z,95903.28
2023-03-18T20:53:00.939Z,95897.19
2023-03-18T20:55:31.311Z,95893.19
2023-03-18T20:58:00.084Z,95891.34
2023-03-18T21:00:31.180Z,95719.13
2023-03-18T21:03:00.999Z,95818.03
2023-03-18T21:05:28.970Z,95885.00
2023-03-18T21:07:57.057Z,95879.06
2023-03-18T21:10:28.377Z,95872.91
2023-03-18T21:12:56.407Z,95871.06
2023-03-18T21:15:26.679Z,95832.00
2023-03-18T21:17:55.114Z,95872.63
2023-03-18T21:20:28.182Z,95863.50
2023-03-18T21:22:56.406Z,95868.31
2023-03-18T21:25:28.810Z,95863.00
2023-03-18T21:27:57.806Z,95860.34
2023-03-18T21:30:26.238Z,95868.38
2023-03-18T21:32:54.210Z,95864.78
2023-03-18T21:35:25.289Z,95855.81
2023-03-18T21:37:54.103Z,95846.34
2023-03-18T21:40:24.499Z,95868.22
2023-03-18T21:42:53.909Z,95868.81
2023-03-18T21:45:24.266Z,95847.78
2023-03-18T21:47:53.216Z,95877.03
2023-03-18T21:50:23.156Z,95869.34
2023-03-18T21:52:52.038Z,95877.91
2023-03-18T21:55:20.843Z,95851.31
2023-03-18T21:57:49.520Z,95867.81
2023-03-18T22:00:22.385Z,95866.19
2023-03-18T22:02:51.079Z,95864.53
2023-03-18T22:05:21.792Z,95851.50
2023-03-18T22:07:50.575Z,95881.00
2023-03-18T22:10:23.061Z,95878.28
2023-03-18T22:12:51.563Z,95872.97
2023-03-18T22:15:37.012Z,95857.94
2023-03-18T22:18:06.207Z,95871.28
2023-03-18T22:20:35.970Z,95892.34
2023-03-18T22:23:12.708Z,95885.44
2023-03-18T22:25:42.280Z,95869.16
2023-03-18T22:28:11.682Z,95870.50
2023-03-18T22:30:46.136Z,95865.72
2023-03-18T22:33:20.588Z,95886.47
2023-03-18T22:35:48.861Z,95881.69
2023-03-18T22:38:17.956Z,95854.03
2023-03-18T22:40:47.364Z,95839.63
2023-03-18T22:43:30.993Z,95873.16
2023-03-18T22:46:01.333Z,95883.28
2023-03-18T22:48:29.801Z,95845.75
2023-03-18T22:50:59.215Z,95875.28
2023-03-18T22:53:30.038Z,95818.91
2023-03-18T22:55:59.109Z,95884.38
2023-03-18T22:58:28.639Z,95886.47
2023-03-18T23:00:57.283Z,95840.72
2023-03-18T23:03:29.192Z,95882.75
2023-03-18T23:05:59.036Z,95891.03
2023-03-18T23:08:27.621Z,95894.50
2023-03-18T23:10:57.875Z,95887.03
2023-03-18T23:13:29.908Z,95890.78
2023-03-18T23:15:58.254Z,95890.78
2023-03-18T23:18:27.833Z,95880.66
2023-03-18T23:20:55.810Z,95889.44
2023-03-18T23:23:24.009Z,95888.09
2023-03-18T23:25:53.468Z,95894.53
2023-03-18T23:28:21.495Z,95782.72
2023-03-18T23:30:51.424Z,95871.06
2023-03-18T23:33:20.006Z,95727.66
2023-03-18T23:35:49.389Z,95899.28
2023-03-18T23:38:17.334Z,95898.25
2023-03-18T23:40:45.355Z,95901.97
2023-03-18T23:43:13.328Z,95891.03
2023-03-18T23:45:41.693Z,95895.03
2023-03-18T23:48:09.703Z,95897.16
2023-03-18T23:50:37.542Z,95895.84
2023-03-18T23:53:06.805Z,95794.44
2023-03-18T23:55:35.401Z,95894.50
2023-03-18T23:58:04.207Z,95884.41
